Time;durP1;ratioP1;P1;durP2;ratioP2;P2;SDS_P1;SDS_P2;PMS_P1;PMS_P2;Temp;Humidity;BMP_temperature;BMP_pressure;BME280_temperature;BME280_humidity;BME280_pressure;Samples;Min_cycle;Max_cycle;Signal;HPM_P1;HPM_P2
2021/06/12 00:01:40;;;;;;;;;;;;;;;15.17;63.45;97042.90;1782425;81;20149;-82
2021/06/12 00:04:08;;;;;;;;;;;;;;;15.12;63.63;97048.19;1782484;80;20112;-87
2021/06/12 00:06:34;;;;;;;;;;;;;;;15.07;62.52;97050.45;1782451;81;20397;-86
2021/06/12 00:09:01;;;;;;;;;;;;;;;15.03;61.39;97050.91;1783709;80;20090;-88
2021/06/12 00:11:27;;;;;;;;;;;;;;;14.97;61.70;97053.20;1784438;79;20101;-89
2021/06/12 00:13:53;;;;;;;;;;;;;;;14.92;62.58;97052.81;1782603;81;20096;-89
2021/06/12 00:16:19;;;;;;;;;;;;;;;14.86;62.38;97052.09;1782382;81;20128;-87
2021/06/12 00:18:49;;;;;;;;;;;;;;;14.81;63.28;97045.06;1782667;80;20167;-87
2021/06/12 00:21:15;;;;;;;;;;;;;;;14.75;63.70;97045.68;1789588;80;20167;-88
2021/06/12 00:23:41;;;;;;;;;;;;;;;14.69;62.86;97049.77;1781443;79;20120;-86
2021/06/12 00:26:07;;;;;;;;;;;;;;;14.64;62.39;97050.19;1777665;81;20156;-87
2021/06/12 00:28:37;;;;;;;;;;;;;;;14.57;63.75;97047.80;1777673;81;20114;-88
2021/06/12 00:31:01;;;;;;;;;;;;;;;14.53;65.01;97048.59;1777294;81;20389;-84
2021/06/12 00:33:27;;;;;;;;;;;;;;;14.49;63.07;97046.38;1777858;81;20460;-88
2021/06/12 00:35:54;;;;;;;;;;;;;;;14.47;62.88;97037.73;1777679;81;20409;-87
2021/06/12 00:38:20;;;;;;;;;;;;;;;14.45;62.86;97037.05;1777675;81;20393;-88
2021/06/12 00:40:46;;;;;;;;;;;;;;;14.42;63.42;97040.84;1785705;80;20437;-87
2021/06/12 00:43:12;;;;;;;;;;;;;;;14.39;64.36;97033.17;1787548;80;20086;-87
2021/06/12 00:45:45;;;;;;;;;;;;;;;14.38;65.37;97034.18;1787410;80;20102;-85
2021/06/12 00:48:07;;;;;;;;;;;;;;;14.35;63.67;97040.59;1786162;80;20122;-88
2021/06/12 00:50:33;;;;;;;;;;;;;;;14.35;64.37;97033.96;1780006;80;20149;-88
2021/06/12 00:53:00;;;;;;;;;;;;;;;14.32;62.78;97032.95;1777737;81;20109;-89
2021/06/12 00:55:26;;;;;;;;;;;;;;;14.31;62.90;97030.42;1782578;80;20098;-89
2021/06/12 00:57:52;;;;;;;;;;;;;;;14.28;66.23;97036.05;1787497;80;20103;-89
2021/06/12 01:00:20;;;;;;;;;;;;;;;14.25;66.10;97035.01;1786381;80;20375;-88
2021/06/12 01:02:47;;;;;;;;;;;;;;;14.21;65.23;97034.47;1779198;81;20119;-89
2021/06/12 01:05:15;;;;;;;;;;;;;;;14.18;64.73;97032.95;1779334;80;20094;-88
2021/06/12 01:07:42;;;;;;;;;;;;;;;14.15;65.09;97035.89;1779341;81;20147;-88
2021/06/12 01:10:10;;;;;;;;;;;;;;;14.13;63.71;97029.90;1779321;81;20125;-88
2021/06/12 01:13:04;;;;;;;;;;;;;;;14.10;63.85;97035.52;1780170;80;20414;-87
2021/06/12 01:15:37;;;;;;;;;;;;;;;14.10;65.50;97029.36;1787815;80;20395;-88
2021/06/12 01:18:09;;;;;;;;;;;;;;;14.09;62.99;97030.34;1757252;80;20118;-86
2021/06/12 01:20:51;;;;;;;;;;;;;;;14.08;64.81;97032.64;1779609;80;20097;-86
2021/06/12 01:23:52;;;;;;;;;;;;;;;14.09;65.39;97029.02;1771304;81;20160;-86
2021/06/12 01:26:50;;;;;;;;;;;;;;;14.05;64.88;97026.67;1697440;81;20138;-85
2021/06/12 01:29:23;;;;;;;;;;;;;;;14.06;65.09;97022.20;1765036;81;20153;-87
2021/06/12 01:31:49;;;;;;;;;;;;;;;14.08;64.54;97023.37;1784747;80;20146;-86
2021/06/12 01:34:17;;;;;;;;;;;;;;;14.08;65.90;97022.89;1793115;80;20101;-86
2021/06/12 01:36:43;;;;;;;;;;;;;;;14.10;65.09;97026.71;1793397;80;20662;-87
2021/06/12 01:39:10;;;;;;;;;;;;;;;14.11;65.29;97024.41;1721284;83;20397;-86
2021/06/12 01:41:38;;;;;;;;;;;;;;;14.11;65.25;97023.91;1736531;82;20388;-86
2021/06/12 01:44:05;;;;;;;;;;;;;;;14.11;65.12;97023.91;1754270;81;20396;-86
2021/06/12 01:46:31;;;;;;;;;;;;;;;14.12;65.33;97024.75;1747633;82;20099;-87
2021/06/12 01:48:59;;;;;;;;;;;;;;;14.12;65.52;97024.25;1790041;80;20434;-86
2021/06/12 01:51:26;;;;;;;;;;;;;;;14.11;64.06;97017.78;1742713;82;20178;-87
2021/06/12 01:53:54;;;;;;;;;;;;;;;14.10;65.18;97019.61;1720876;83;20109;-87
2021/06/12 01:56:24;;;;;;;;;;;;;;;14.10;65.55;97018.76;1720919;83;20430;-87
2021/06/12 01:58:50;;;;;;;;;;;;;;;14.11;64.22;97018.60;1720116;83;20141;-86
2021/06/12 02:01:18;;;;;;;;;;;;;;;14.08;65.90;97020.72;1701667;83;20113;-86
2021/06/12 02:03:46;;;;;;;;;;;;;;;14.08;65.24;97016.73;1722602;83;20129;-87
2021/06/12 02:06:16;;;;;;;;;;;;;;;14.08;66.12;97020.72;1722579;83;20213;-85
2021/06/12 02:08:43;;;;;;;;;;;;;;;14.08;65.01;97012.30;1722538;83;20164;-85
2021/06/12 02:11:14;;;;;;;;;;;;;;;14.09;65.11;97011.31;1730850;82;20115;-87
2021/06/12 02:13:41;;;;;;;;;;;;;;;14.09;65.41;97012.64;1753926;81;20114;-88
2021/06/12 02:16:08;;;;;;;;;;;;;;;14.11;65.73;97009.83;1747571;82;20108;-88
2021/06/12 02:18:35;;;;;;;;;;;;;;;14.15;65.03;97013.87;1779925;81;20099;-85
2021/06/12 02:21:01;;;;;;;;;;;;;;;14.15;66.04;97009.39;1740023;82;20109;-88
2021/06/12 02:23:29;;;;;;;;;;;;;;;14.19;65.04;97012.58;1723898;83;20461;-87
2021/06/12 02:25:55;;;;;;;;;;;;;;;14.24;66.21;97014.30;1727213;83;20409;-87
2021/06/12 02:28:24;;;;;;;;;;;;;;;14.28;65.67;97015.66;1727242;83;20152;-87
2021/06/12 02:31:02;;;;;;;;;;;;;;;14.33;66.31;97011.23;1727366;83;20095;-86
2021/06/12 02:33:28;;;;;;;;;;;;;;;14.35;65.70;97006.63;1728506;82;20147;-85
2021/06/12 02:35:55;;;;;;;;;;;;;;;14.31;66.41;97008.75;1734364;81;20150;-88
2021/06/12 02:38:22;;;;;;;;;;;;;;;14.25;65.37;97001.37;1734668;82;20150;-87
2021/06/12 02:40:51;;;;;;;;;;;;;;;14.21;66.32;96997.36;1736732;82;20145;-88
2021/06/12 02:43:17;;;;;;;;;;;;;;;14.18;65.57;97007.78;1751036;81;20107;-86
2021/06/12 02:45:43;;;;;;;;;;;;;;;14.15;65.55;97011.22;1750883;82;20099;-87
2021/06/12 02:48:13;;;;;;;;;;;;;;;14.11;66.40;97007.18;1750755;82;20103;-85
2021/06/12 02:50:40;;;;;;;;;;;;;;;14.06;65.34;97011.09;1749570;82;20415;-86
2021/06/12 02:53:08;;;;;;;;;;;;;;;14.03;64.72;97011.88;1751328;81;20115;-86
2021/06/12 02:55:41;;;;;;;;;;;;;;;13.98;66.21;97011.00;1751193;81;20130;-87
2021/06/12 02:58:09;;;;;;;;;;;;;;;13.98;65.17;97012.83;1749960;81;20107;-88
2021/06/12 03:00:36;;;;;;;;;;;;;;;13.98;66.89;97014.97;1740590;82;20154;-86
2021/06/12 03:03:03;;;;;;;;;;;;;;;14.00;64.73;97018.31;1751115;82;20470;-86
2021/06/12 03:05:32;;;;;;;;;;;;;;;14.00;65.17;97022.80;1751111;81;20411;-87
2021/06/12 03:07:59;;;;;;;;;;;;;;;14.02;65.74;97020.81;1751117;81;20098;-87
2021/06/12 03:10:28;;;;;;;;;;;;;;;14.03;65.04;97018.03;1749520;82;20213;-86
2021/06/12 03:12:55;;;;;;;;;;;;;;;14.08;65.87;97026.87;1747105;82;20140;-86
2021/06/12 03:15:23;;;;;;;;;;;;;;;14.12;65.65;97026.90;1734448;82;20102;-85
2021/06/12 03:17:50;;;;;;;;;;;;;;;14.16;64.99;97028.29;1734114;83;20127;-87
2021/06/12 03:20:20;;;;;;;;;;;;;;;14.20;65.58;97025.67;1735919;82;20107;-87
2021/06/12 03:22:48;;;;;;;;;;;;;;;14.26;65.25;97027.41;1747482;81;20103;-87
2021/06/12 03:25:17;;;;;;;;;;;;;;;14.32;66.27;97029.45;1760337;81;20099;-85
2021/06/12 03:27:43;;;;;;;;;;;;;;;14.37;66.45;97033.33;1760208;82;20106;-87
2021/06/12 03:30:11;;;;;;;;;;;;;;;14.43;66.21;97028.43;1760286;81;20098;-85
2021/06/12 03:32:38;;;;;;;;;;;;;;;14.48;65.95;97029.63;1769895;81;20097;-86
2021/06/12 03:35:05;;;;;;;;;;;;;;;14.53;65.86;97028.70;1769933;81;20102;-87
2021/06/12 03:37:35;;;;;;;;;;;;;;;14.59;65.91;97025.09;1770331;81;20399;-86
2021/06/12 03:40:02;;;;;;;;;;;;;;;14.65;65.56;97032.47;1771689;81;20422;-86
2021/06/12 03:42:29;;;;;;;;;;;;;;;14.70;65.38;97031.54;1760598;81;20134;-86
2021/06/12 03:44:58;;;;;;;;;;;;;;;14.75;64.88;97029.77;1760121;82;20407;-85
2021/06/12 03:47:25;;;;;;;;;;;;;;;14.84;65.32;97034.16;1760412;81;20156;-86
2021/06/12 03:49:52;;;;;;;;;;;;;;;14.94;64.85;97036.25;1760046;82;20114;-85
2021/06/12 03:52:23;;;;;;;;;;;;;;;15.26;64.87;97034.86;1768601;81;20098;-85
2021/06/12 03:54:51;;;;;;;;;;;;;;;15.76;64.71;97041.81;1769893;81;20098;-84
2021/06/12 03:57:18;;;;;;;;;;;;;;;16.34;63.25;97047.43;1769980;81;20102;-84
2021/06/12 03:59:45;;;;;;;;;;;;;;;16.92;62.77;97040.92;1769810;81;20134;-84
2021/06/12 04:02:13;;;;;;;;;;;;;;;17.49;61.95;97039.59;1768926;79;20110;-81
2021/06/12 04:04:39;;;;;;;;;;;;;;;18.03;60.98;97034.19;1769265;80;20401;-84
2021/06/12 04:07:05;;;;;;;;;;;;;;;18.64;57.47;97047.42;1768346;81;20406;-84
2021/06/12 04:09:32;;;;;;;;;;;;;;;19.16;58.43;97048.61;1769979;81;20094;-85
2021/06/12 04:11:58;;;;;;;;;;;;;;;19.72;56.16;97047.45;1763407;81;20240;-85
2021/06/12 04:14:24;;;;;;;;;;;;;;;20.17;56.36;97046.98;1765290;81;20399;-84
2021/06/12 04:16:50;;;;;;;;;;;;;;;20.68;57.08;97059.56;1768523;81;20095;-85
2021/06/12 04:19:16;;;;;;;;;;;;;;;21.21;55.98;97059.28;1769711;81;20114;-85
2021/06/12 04:21:42;;;;;;;;;;;;;;;21.66;51.48;97056.41;1769899;81;20138;-83
2021/06/12 04:24:08;;;;;;;;;;;;;;;22.07;48.26;97058.84;1764719;81;20127;-84
2021/06/12 04:26:34;;;;;;;;;;;;;;;22.49;48.72;97048.66;1755975;81;20179;-84
2021/06/12 04:29:00;;;;;;;;;;;;;;;22.89;47.63;97058.17;1756323;81;20139;-84
2021/06/12 04:31:26;;;;;;;;;;;;;;;23.27;48.57;97054.96;1755438;81;20177;-85
2021/06/12 04:33:52;;;;;;;;;;;;;;;23.64;46.53;97053.22;1760847;81;20098;-84
2021/06/12 04:36:18;;;;;;;;;;;;;;;24.08;45.76;97059.00;1755149;81;20126;-83
2021/06/12 04:38:45;;;;;;;;;;;;;;;24.54;43.09;97061.22;1755380;81;20412;-82
2021/06/12 04:41:11;;;;;;;;;;;;;;;25.03;42.23;97064.31;1757598;81;20130;-83
2021/06/12 04:43:37;;;;;;;;;;;;;;;25.32;44.12;97065.59;1760163;81;20122;-84
2021/06/12 04:46:03;;;;;;;;;;;;;;;25.60;39.82;97071.63;1761630;81;20130;-83
2021/06/12 04:48:29;;;;;;;;;;;;;;;25.97;42.78;97072.56;1756093;81;20428;-86
2021/06/12 04:50:55;;;;;;;;;;;;;;;26.28;43.65;97072.16;1755205;82;20178;-84
2021/06/12 04:53:21;;;;;;;;;;;;;;;26.65;37.58;97075.38;1759027;81;20106;-82
2021/06/12 04:55:47;;;;;;;;;;;;;;;26.90;36.83;97074.45;1756503;82;20099;-83
2021/06/12 04:58:13;;;;;;;;;;;;;;;27.30;36.88;97080.66;1755090;82;20100;-84
2021/06/12 05:00:40;;;;;;;;;;;;;;;27.73;38.57;97076.88;1756617;82;20403;-84
2021/06/12 05:03:06;;;;;;;;;;;;;;;28.17;34.86;97076.56;1757043;82;20102;-84
2021/06/12 05:05:32;;;;;;;;;;;;;;;28.63;34.22;97084.02;1758786;82;20098;-83
2021/06/12 05:07:59;;;;;;;;;;;;;;;29.09;31.65;97076.00;1760790;81;20094;-82
2021/06/12 05:10:25;;;;;;;;;;;;;;;29.55;32.43;97086.86;1760596;82;20137;-82
2021/06/12 05:12:51;;;;;;;;;;;;;;;29.96;38.96;97089.42;1759051;82;20383;-83
2021/06/12 05:15:20;;;;;;;;;;;;;;;30.23;32.41;97084.13;1756473;82;20118;-83
2021/06/12 05:17:48;;;;;;;;;;;;;;;30.55;34.93;97081.30;1759872;81;20179;-83
2021/06/12 05:20:14;;;;;;;;;;;;;;;30.56;28.33;97087.84;1756522;82;20098;-84
2021/06/12 05:22:40;;;;;;;;;;;;;;;30.73;28.90;97084.23;1758433;82;20130;-85
2021/06/12 05:25:06;;;;;;;;;;;;;;;30.86;30.17;97089.84;1732707;82;20376;-84
2021/06/12 05:27:32;;;;;;;;;;;;;;;30.75;27.68;97089.72;1732744;82;20144;-82
2021/06/12 05:29:59;;;;;;;;;;;;;;;30.90;28.15;97090.96;1740268;83;20100;-84
2021/06/12 05:32:25;;;;;;;;;;;;;;;31.02;28.31;97092.17;1731834;83;20128;-82
2021/06/12 05:34:51;;;;;;;;;;;;;;;31.17;28.21;97088.83;1726689;82;20111;-81
2021/06/12 05:37:17;;;;;;;;;;;;;;;31.41;27.03;97094.27;1727006;81;20099;-84
2021/06/12 05:39:43;;;;;;;;;;;;;;;31.69;28.96;97090.98;1726492;82;20120;-86
2021/06/12 05:42:09;;;;;;;;;;;;;;;31.86;29.31;97090.02;1738568;82;20111;-87
2021/06/12 05:44:35;;;;;;;;;;;;;;;32.08;26.73;97096.16;1729552;82;20123;-87
2021/06/12 05:47:02;;;;;;;;;;;;;;;32.33;27.36;97093.35;1727183;83;20412;-85
2021/06/12 05:49:28;;;;;;;;;;;;;;;32.59;30.31;97092.11;1724079;83;20140;-83
2021/06/12 05:51:54;;;;;;;;;;;;;;;32.77;24.97;97089.44;1724116;83;20143;-80
2021/06/12 05:54:20;;;;;;;;;;;;;;;32.89;25.14;97093.88;1737833;82;20108;-84
2021/06/12 05:56:46;;;;;;;;;;;;;;;33.05;24.37;97094.75;1726644;82;20415;-88
2021/06/12 05:59:12;;;;;;;;;;;;;;;32.99;25.87;97090.63;1737696;82;20107;-86
2021/06/12 06:01:39;;;;;;;;;;;;;;;33.19;24.64;97084.94;1734763;82;20131;-88
2021/06/12 06:04:05;;;;;;;;;;;;;;;33.34;26.06;97086.11;1734072;82;20147;-85
2021/06/12 06:06:31;;;;;;;;;;;;;;;33.59;24.24;97087.48;1728976;82;20104;-86
2021/06/12 06:08:57;;;;;;;;;;;;;;;33.66;26.61;97081.75;1726833;82;20189;-80
2021/06/12 06:11:23;;;;;;;;;;;;;;;33.26;25.09;97086.89;1726014;82;20107;-85
2021/06/12 06:13:49;;;;;;;;;;;;;;;33.00;24.49;97086.81;1726256;82;20087;-84
2021/06/12 06:16:15;;;;;;;;;;;;;;;33.11;25.16;97085.48;1728475;82;20095;-86
2021/06/12 06:18:41;;;;;;;;;;;;;;;33.38;28.42;97088.02;1740491;82;20392;-85
2021/06/12 06:21:09;;;;;;;;;;;;;;;33.40;24.33;97075.45;1731346;82;20119;-83
2021/06/12 06:23:36;;;;;;;;;;;;;;;33.64;23.90;97075.17;1729346;81;20131;-86
2021/06/12 06:26:02;;;;;;;;;;;;;;;33.52;24.00;97082.84;1761963;81;20130;-85
2021/06/12 06:28:28;;;;;;;;;;;;;;;33.42;27.82;97081.47;1757937;81;20142;-83
2021/06/12 06:30:55;;;;;;;;;;;;;;;33.11;27.96;97083.59;1794356;80;20105;-84
2021/06/12 06:33:22;;;;;;;;;;;;;;;32.32;26.84;97086.78;1785991;80;20098;-85
2021/06/12 06:35:50;;;;;;;;;;;;;;;31.37;26.53;97081.42;1792751;80;20082;-85
2021/06/12 06:38:16;;;;;;;;;;;;;;;31.58;26.78;97079.14;1792843;80;20414;-84
2021/06/12 06:40:42;;;;;;;;;;;;;;;31.25;26.04;97063.86;1792221;80;20118;-84
2021/06/12 06:43:11;;;;;;;;;;;;;;;31.02;28.00;97071.77;1793811;80;20121;-85
2021/06/12 06:45:38;;;;;;;;;;;;;;;30.42;28.83;97072.95;1794520;80;20421;-82
2021/06/12 06:48:05;;;;;;;;;;;;;;;30.28;28.64;97077.94;1791104;79;20381;-83
2021/06/12 06:50:31;;;;;;;;;;;;;;;30.74;28.32;97071.75;1789950;80;20092;-84
2021/06/12 06:52:59;;;;;;;;;;;;;;;31.04;28.12;97073.70;1791434;80;20113;-85
2021/06/12 06:55:26;;;;;;;;;;;;;;;30.35;27.62;97076.66;1791181;80;20115;-83
2021/06/12 06:57:52;;;;;;;;;;;;;;;30.01;28.59;97071.86;1788397;80;20096;-83
2021/06/12 07:00:19;;;;;;;;;;;;;;;30.02;28.69;97077.03;1792123;80;20429;-86
2021/06/12 07:02:45;;;;;;;;;;;;;;;30.15;29.88;97070.42;1792726;80;20125;-84
2021/06/12 07:05:12;;;;;;;;;;;;;;;30.09;29.08;97075.50;1792638;80;20171;-85
2021/06/12 07:07:38;;;;;;;;;;;;;;;30.26;28.53;97065.94;1791330;80;20436;-85
2021/06/12 07:10:05;;;;;;;;;;;;;;;30.51;29.65;97082.32;1785312;80;20131;-85
2021/06/12 07:12:31;;;;;;;;;;;;;;;30.30;27.83;97079.33;1787362;80;20124;-83
2021/06/12 07:14:57;;;;;;;;;;;;;;;30.12;28.29;97076.89;1791241;80;20129;-83
2021/06/12 07:17:23;;;;;;;;;;;;;;;29.55;29.33;97084.14;1791119;80;20098;-84
2021/06/12 07:19:49;;;;;;;;;;;;;;;29.07;30.11;97078.94;1791096;80;20121;-85
2021/06/12 07:22:16;;;;;;;;;;;;;;;29.16;29.85;97082.09;1791794;80;20182;-84
2021/06/12 07:24:42;;;;;;;;;;;;;;;29.13;29.35;97080.70;1793703;80;20400;-83
2021/06/12 07:27:08;;;;;;;;;;;;;;;29.35;30.08;97077.84;1790614;79;20081;-83
2021/06/12 07:29:34;;;;;;;;;;;;;;;29.63;29.42;97074.22;1755198;82;20107;-84
2021/06/12 07:32:00;;;;;;;;;;;;;;;29.76;29.44;97077.14;1760335;80;20136;-84
2021/06/12 07:34:27;;;;;;;;;;;;;;;29.90;29.47;97077.62;1790869;80;20154;-82
2021/06/12 07:36:53;;;;;;;;;;;;;;;30.31;29.85;97073.34;1790887;80;20128;-84
2021/06/12 07:39:19;;;;;;;;;;;;;;;30.68;29.83;97070.03;1790927;80;20100;-83
2021/06/12 07:41:45;;;;;;;;;;;;;;;30.92;28.22;97067.05;1790910;80;20108;-80
2021/06/12 07:44:11;;;;;;;;;;;;;;;30.97;27.26;97069.81;1792327;80;20112;-85
2021/06/12 07:46:37;;;;;;;;;;;;;;;30.95;27.61;97064.64;1782745;80;20156;-86
2021/06/12 07:49:04;;;;;;;;;;;;;;;30.71;27.64;97074.16;1791142;80;20149;-84
2021/06/12 07:51:33;;;;;;;;;;;;;;;30.30;27.24;97071.72;1792469;80;20114;-85
2021/06/12 07:54:00;;;;;;;;;;;;;;;30.26;27.81;97071.38;1791140;80;20096;-85
2021/06/12 07:56:27;;;;;;;;;;;;;;;30.27;27.55;97076.30;1791630;80;20104;-84
2021/06/12 07:58:53;;;;;;;;;;;;;;;29.73;27.34;97069.51;1792471;80;20122;-83
2021/06/12 08:01:19;;;;;;;;;;;;;;;29.18;28.95;97067.75;1795696;80;20082;-83
2021/06/12 08:03:45;;;;;;;;;;;;;;;29.22;29.62;97069.44;1785369;79;20101;-82
2021/06/12 08:06:11;;;;;;;;;;;;;;;29.25;29.79;97068.42;1784626;80;20136;-82
2021/06/12 08:08:37;;;;;;;;;;;;;;;29.45;29.83;97063.09;1789603;80;20413;-82
2021/06/12 08:11:04;;;;;;;;;;;;;;;29.74;28.46;97060.30;1793706;79;20429;-84
2021/06/12 08:13:30;;;;;;;;;;;;;;;29.86;29.04;97058.28;1792084;80;20096;-83
2021/06/12 08:15:56;;;;;;;;;;;;;;;29.59;28.79;97056.80;1788626;80;20421;-83
2021/06/12 08:18:22;;;;;;;;;;;;;;;28.70;29.70;97060.30;1799796;79;20100;-84
2021/06/12 08:20:49;;;;;;;;;;;;;;;28.64;30.18;97059.37;1773865;80;20132;-83
2021/06/12 08:23:16;;;;;;;;;;;;;;;28.61;30.49;97056.31;1794750;79;20438;-83
2021/06/12 08:25:42;;;;;;;;;;;;;;;28.38;31.07;97048.55;1778024;79;20397;-82
2021/06/12 08:28:08;;;;;;;;;;;;;;;28.49;31.12;97045.52;1786466;79;20093;-83
2021/06/12 08:30:36;;;;;;;;;;;;;;;28.58;30.00;97040.01;1781152;80;20120;-81
2021/06/12 08:33:09;;;;;;;;;;;;;;;28.57;29.63;97042.42;1777734;79;20101;-84
2021/06/12 08:35:38;;;;;;;;;;;;;;;28.07;29.97;97041.11;1788469;79;20441;-82
2021/06/12 08:38:04;;;;;;;;;;;;;;;27.89;30.41;97037.96;1790453;79;20152;-82
2021/06/12 08:40:30;;;;;;;;;;;;;;;27.61;31.12;97036.78;1782974;80;20417;-84
2021/06/12 08:42:57;;;;;;;;;;;;;;;27.80;31.47;97033.45;1795485;79;20401;-82
2021/06/12 08:45:29;;;;;;;;;;;;;;;28.03;31.29;97029.91;1780983;80;20109;-83
2021/06/12 08:47:56;;;;;;;;;;;;;;;28.29;30.95;97034.54;1773125;80;20172;-84
2021/06/12 08:50:24;;;;;;;;;;;;;;;28.58;30.99;97029.16;1774652;80;20427;-85
2021/06/12 08:52:52;;;;;;;;;;;;;;;27.91;31.26;97029.08;1770931;80;20164;-84
2021/06/12 08:55:21;;;;;;;;;;;;;;;27.69;31.92;97026.98;1783901;79;20428;-83
2021/06/12 08:57:47;;;;;;;;;;;;;;;27.35;32.57;97023.14;1774191;80;20141;-83
2021/06/12 09:00:15;;;;;;;;;;;;;;;27.10;33.07;97022.27;1774929;80;20093;-83
2021/06/12 09:03:07;;;;;;;;;;;;;;;27.13;32.97;97020.98;1782937;79;20132;-81
2021/06/12 09:05:42;;;;;;;;;;;;;;;27.05;32.84;97021.31;1777120;80;20445;-83
2021/06/12 09:08:10;;;;;;;;;;;;;;;27.21;32.89;97013.87;1777111;80;20410;-84
2021/06/12 09:10:56;;;;;;;;;;;;;;;27.40;31.99;97020.05;1774922;80;20405;-83
2021/06/12 09:13:46;;;;;;;;;;;;;;;27.23;32.43;97012.31;1777513;80;20112;-84
2021/06/12 09:16:34;;;;;;;;;;;;;;;27.19;32.12;97009.22;1780491;80;20144;-84
2021/06/12 09:19:06;;;;;;;;;;;;;;;27.28;32.07;97011.07;1777809;80;20149;-83
2021/06/12 09:21:34;;;;;;;;;;;;;;;27.22;32.13;97003.36;1778882;80;20117;-82
2021/06/12 09:24:03;;;;;;;;;;;;;;;26.81;32.86;97004.48;1777334;80;20131;-81
2021/06/12 09:26:48;;;;;;;;;;;;;;;26.74;33.38;97001.03;1789595;80;20092;-82
2021/06/12 09:29:18;;;;;;;;;;;;;;;26.77;33.02;96998.41;1790396;80;20120;-82
2021/06/12 09:31:46;;;;;;;;;;;;;;;26.58;33.17;96990.32;1784233;80;20116;-84
2021/06/12 09:34:14;;;;;;;;;;;;;;;26.63;33.33;96990.98;1784573;80;20758;-84
2021/06/12 09:36:41;;;;;;;;;;;;;;;26.64;33.17;96991.29;1785827;80;20150;-81
2021/06/12 09:39:22;;;;;;;;;;;;;;;26.73;33.73;96988.56;1787364;80;20137;-82
2021/06/12 09:41:51;;;;;;;;;;;;;;;26.81;33.32;96966.63;1783621;80;20410;-86
2021/06/12 09:44:35;;;;;;;;;;;;;;;26.90;33.49;96973.91;1777687;79;20120;-83
2021/06/12 09:47:03;;;;;;;;;;;;;;;26.83;33.23;96981.80;1789732;80;20127;-87
2021/06/12 09:49:37;;;;;;;;;;;;;;;26.69;33.62;96975.20;1791057;80;20451;-88
2021/06/12 09:52:06;;;;;;;;;;;;;;;26.24;34.03;96979.12;1790261;80;20104;-87
2021/06/12 09:54:38;;;;;;;;;;;;;;;26.25;34.23;96969.98;1788987;80;20149;-88
2021/06/12 09:57:07;;;;;;;;;;;;;;;26.27;34.28;96975.14;1788774;80;20102;-87
2021/06/12 09:59:39;;;;;;;;;;;;;;;26.36;34.24;96975.67;1785435;80;20107;-88
2021/06/12 10:02:05;;;;;;;;;;;;;;;26.46;34.25;96969.17;1780791;80;20097;-86
2021/06/12 10:04:32;;;;;;;;;;;;;;;26.61;34.50;96958.80;1785223;80;20136;-84
2021/06/12 10:06:58;;;;;;;;;;;;;;;26.83;33.94;96950.72;1788517;80;20118;-89
2021/06/12 10:09:25;;;;;;;;;;;;;;;26.88;33.50;96949.48;1790465;80;20134;-88
2021/06/12 10:11:53;;;;;;;;;;;;;;;26.88;33.88;96953.02;1755548;82;20388;-86
2021/06/12 10:14:19;;;;;;;;;;;;;;;26.73;34.16;96953.93;1788237;80;20402;-90
2021/06/12 10:16:46;;;;;;;;;;;;;;;26.79;33.77;96955.22;1755135;82;20477;-84
2021/06/12 10:19:16;;;;;;;;;;;;;;;26.93;33.10;96957.73;1787644;80;20447;-84
2021/06/12 10:21:42;;;;;;;;;;;;;;;27.08;33.93;96952.70;1754980;82;20428;-80
2021/06/12 10:24:09;;;;;;;;;;;;;;;26.62;34.27;96960.45;1787855;80;20423;-83
2021/06/12 10:26:36;;;;;;;;;;;;;;;26.56;34.58;96953.23;1757589;82;20107;-84
2021/06/12 10:29:04;;;;;;;;;;;;;;;26.78;33.95;96947.35;1763055;81;20110;-86
2021/06/12 10:31:35;;;;;;;;;;;;;;;26.99;34.66;96951.39;1766012;81;20110;-84
2021/06/12 10:34:02;;;;;;;;;;;;;;;26.65;35.02;96946.99;1766113;81;20127;-85
2021/06/12 10:36:30;;;;;;;;;;;;;;;26.53;35.45;96948.31;1761909;81;20095;-82
2021/06/12 10:38:57;;;;;;;;;;;;;;;26.26;35.93;96949.17;1748137;81;20163;-85
2021/06/12 10:41:31;;;;;;;;;;;;;;;26.15;36.18;96948.89;1751054;81;20146;-81
2021/06/12 10:44:02;;;;;;;;;;;;;;;25.97;36.56;96944.31;1760515;81;20103;-85
2021/06/12 10:46:27;;;;;;;;;;;;;;;25.86;36.73;96939.66;1774347;80;20445;-85
2021/06/12 10:48:59;;;;;;;;;;;;;;;25.74;37.17;96928.80;1791768;80;20140;-85
2021/06/12 10:51:31;;;;;;;;;;;;;;;25.84;36.95;96927.75;1786762;80;20136;-85
2021/06/12 10:54:26;;;;;;;;;;;;;;;25.57;37.00;96931.25;1782998;80;20108;-87
2021/06/12 10:57:05;;;;;;;;;;;;;;;25.49;37.58;96926.95;1785965;80;20188;-85
2021/06/12 10:59:46;;;;;;;;;;;;;;;25.79;37.04;96926.23;1783937;80;20417;-80
2021/06/12 11:02:25;;;;;;;;;;;;;;;26.11;36.63;96922.05;1786256;80;20457;-86
2021/06/12 11:04:53;;;;;;;;;;;;;;;26.22;36.07;96930.45;1786023;80;20089;-82
2021/06/12 11:07:31;;;;;;;;;;;;;;;26.01;36.33;96929.83;1787917;80;20097;-83
2021/06/12 11:10:16;;;;;;;;;;;;;;;25.80;37.03;96936.52;1786746;80;20131;-84
2021/06/12 11:12:43;;;;;;;;;;;;;;;25.51;37.50;96937.00;1785681;80;20137;-82
2021/06/12 11:15:19;;;;;;;;;;;;;;;25.46;37.39;96944.11;1789316;78;20103;-85
2021/06/12 11:17:45;;;;;;;;;;;;;;;25.40;37.41;96936.37;1782377;80;20140;-83
2021/06/12 11:20:15;;;;;;;;;;;;;;;25.39;37.33;96930.17;1786393;80;20100;-86
2021/06/12 11:22:54;;;;;;;;;;;;;;;25.48;37.74;96932.05;1784286;80;20449;-84
2021/06/12 11:25:24;;;;;;;;;;;;;;;25.64;37.40;96935.23;1785704;80;20108;-83
2021/06/12 11:27:52;;;;;;;;;;;;;;;25.83;36.91;96933.34;1774810;80;20140;-83
2021/06/12 11:30:23;;;;;;;;;;;;;;;25.94;36.55;96939.35;1777485;80;20145;-84
2021/06/12 11:32:59;;;;;;;;;;;;;;;25.93;36.36;96936.89;1787569;80;20148;-83
2021/06/12 11:35:44;;;;;;;;;;;;;;;25.72;36.72;96945.19;1787868;80;20114;-82
2021/06/12 11:38:22;;;;;;;;;;;;;;;25.46;36.76;96944.95;1778946;80;20429;-87
2021/06/12 11:40:55;;;;;;;;;;;;;;;25.22;36.74;96943.36;1785579;80;20094;-86
2021/06/12 11:43:30;;;;;;;;;;;;;;;25.16;36.70;96950.99;1784036;80;20094;-87
2021/06/12 11:45:56;;;;;;;;;;;;;;;25.25;36.58;96955.06;1785033;79;20154;-87
2021/06/12 11:48:25;;;;;;;;;;;;;;;25.32;36.80;96953.66;1787708;80;20094;-88
2021/06/12 11:50:52;;;;;;;;;;;;;;;25.36;38.63;96955.39;1782114;80;20136;-87
2021/06/12 11:53:21;;;;;;;;;;;;;;;25.42;39.64;96963.97;1779718;80;20164;-84
2021/06/12 11:55:47;;;;;;;;;;;;;;;25.43;39.49;96972.37;1785366;79;20186;-88
2021/06/12 11:58:14;;;;;;;;;;;;;;;25.40;39.70;96973.64;1790042;80;20094;-85
2021/06/12 12:00:43;;;;;;;;;;;;;;;25.41;38.39;96976.64;1790020;80;20126;-88
2021/06/12 12:03:11;;;;;;;;;;;;;;;25.39;38.44;96976.51;1787474;80;20135;-85
2021/06/12 12:05:40;;;;;;;;;;;;;;;25.47;37.96;96968.19;1784085;80;20105;-89
2021/06/12 12:08:09;;;;;;;;;;;;;;;25.51;37.61;96973.42;1787622;79;20460;-87
2021/06/12 12:10:37;;;;;;;;;;;;;;;25.62;37.04;96965.11;1788053;80;20089;-86
2021/06/12 12:13:04;;;;;;;;;;;;;;;25.69;37.01;96953.75;1788196;80;20090;-87
2021/06/12 12:15:43;;;;;;;;;;;;;;;25.73;36.99;96960.34;1768308;80;20429;-87
2021/06/12 12:18:11;;;;;;;;;;;;;;;25.79;36.55;96949.71;1782827;79;20465;-84
2021/06/12 12:20:41;;;;;;;;;;;;;;;25.92;36.14;96951.44;1784616;79;20137;-85
2021/06/12 12:23:22;;;;;;;;;;;;;;;25.95;35.54;96942.86;1797694;79;20177;-87
2021/06/12 12:25:51;;;;;;;;;;;;;;;26.03;35.61;96953.39;1781792;79;20144;-83
2021/06/12 12:28:21;;;;;;;;;;;;;;;26.10;36.02;96949.27;1747264;80;20114;-85
2021/06/12 12:30:49;;;;;;;;;;;;;;;26.11;35.04;96950.41;1737612;82;20155;-83
2021/06/12 12:33:17;;;;;;;;;;;;;;;26.22;35.41;96946.65;1753404;81;20154;-87
2021/06/12 12:35:44;;;;;;;;;;;;;;;26.41;36.16;96947.42;1761276;80;20096;-86
2021/06/12 12:38:12;;;;;;;;;;;;;;;26.68;35.77;96928.94;1760424;80;20144;-87
2021/06/12 12:40:38;;;;;;;;;;;;;;;26.96;35.06;96931.56;1783809;80;20125;-87
2021/06/12 12:43:05;;;;;;;;;;;;;;;27.21;34.44;96938.67;1795446;80;20434;-88
2021/06/12 12:45:32;;;;;;;;;;;;;;;27.42;33.11;96933.20;1790422;80;20395;-84
2021/06/12 12:47:58;;;;;;;;;;;;;;;27.63;33.82;96933.70;1785482;80;20399;-85
2021/06/12 12:50:24;;;;;;;;;;;;;;;27.81;32.62;96938.14;1775760;80;20114;-85
2021/06/12 12:53:11;;;;;;;;;;;;;;;27.89;34.50;96936.41;1791240;80;20093;-87
2021/06/12 12:55:39;;;;;;;;;;;;;;;27.84;33.10;96932.26;1782563;80;20116;-86